Terminal Aerodrome Forecast
Issued by NWS

Home | Current Version | Previous Version | Text Only | Print | Product List | Glossary Off
Versions: 1 2 3 4 5 6 7 8 9 10 11 12 13 14 15 16 17 18 19 20 21 22 23 24

000
FTUS43 KPAH 251720
TAFCGI
TAF
KCGI 251720Z 2518/2618 VRB03KT P6SM SCT030
      TEMPO 2518/2521 5SM TSRA OVC030CB
     FM252100 14004KT P6SM VCTS BKN035CB
     FM260000 11005KT P6SM FEW200
     FM260900 VRB03KT 2SM BR FEW130
     FM261400 20003KT 6SM HZ FEW020=

USA.gov is the U.S. government's official web portal to all federal, state and local government web resources and services.